Time;durP1;ratioP1;P1;durP2;ratioP2;P2;SDS_P1;SDS_P2;PMS_P1;PMS_P2;Temp;Humidity;BMP_temperature;BMP_pressure;BME280_temperature;BME280_humidity;BME280_pressure;Samples;Min_cycle;Max_cycle;Signal;HPM_P1;HPM_P2
2021/12/28 00:00:31;;;;;;;16.27;9.07;;;-3.40;99.90;;;;;;4985191;28;20551;-65
2021/12/28 00:02:59;;;;;;;18.17;9.43;;;-3.30;99.90;;;;;;4988658;28;20058;-68
2021/12/28 00:05:27;;;;;;;13.23;8.77;;;-3.30;99.90;;;;;;4988788;28;20058;-66
2021/12/28 00:07:54;;;;;;;14.20;8.43;;;-3.30;99.90;;;;;;4989899;28;20115;-70
2021/12/28 00:10:22;;;;;;;17.27;8.95;;;-3.20;99.90;;;;;;4986300;28;20920;-66
2021/12/28 00:12:49;;;;;;;14.43;7.97;;;-3.20;99.90;;;;;;4984041;28;20091;-68
2021/12/28 00:17:59;;;;;;;18.73;8.23;;;-3.20;99.90;;;;;;4996155;28;20472;-68
2021/12/28 00:20:28;;;;;;;14.32;7.03;;;-3.20;99.90;;;;;;4989919;28;20164;-68
2021/12/28 00:22:56;;;;;;;12.43;5.95;;;-3.10;99.90;;;;;;4994084;28;20168;-65
2021/12/28 00:25:23;;;;;;;13.40;6.50;;;-3.00;99.90;;;;;;4992481;28;20148;-69
2021/12/28 00:27:50;;;;;;;15.70;7.13;;;-3.00;99.90;;;;;;4995567;28;20081;-65
2021/12/28 00:30:17;;;;;;;9.13;6.80;;;-3.10;99.90;;;;;;4993022;28;20131;-65
2021/12/28 00:32:47;;;;;;;15.50;8.60;;;-3.10;99.90;;;;;;4990218;28;20232;-67
2021/12/28 00:35:14;;;;;;;13.90;7.30;;;-3.10;99.90;;;;;;4991583;28;20096;-70
2021/12/28 00:37:40;;;;;;;16.30;8.10;;;-3.10;99.90;;;;;;4992985;28;20060;-64
2021/12/28 00:40:08;;;;;;;11.50;8.00;;;-3.00;99.90;;;;;;4989966;28;20076;-70
2021/12/28 00:42:35;;;;;;;11.07;5.87;;;-3.10;99.90;;;;;;4989980;28;20174;-67
2021/12/28 00:45:03;;;;;;;13.97;7.33;;;-3.10;99.90;;;;;;4990962;28;20088;-67
2021/12/28 00:47:30;;;;;;;12.13;5.65;;;-3.10;99.90;;;;;;4990064;28;20054;-69
2021/12/28 00:49:57;;;;;;;9.88;5.97;;;-3.10;99.90;;;;;;4989773;28;20168;-66
2021/12/28 00:52:24;;;;;;;8.57;5.95;;;-3.10;99.90;;;;;;4990159;28;20065;-70
2021/12/28 00:54:51;;;;;;;11.97;6.27;;;-3.10;99.90;;;;;;4993061;28;20144;-66
2021/12/28 00:57:18;;;;;;;9.88;5.32;;;-3.10;99.90;;;;;;4988920;28;20144;-68
2021/12/28 00:59:45;;;;;;;12.23;5.23;;;-3.10;99.90;;;;;;4994085;28;20081;-70
2021/12/28 01:02:12;;;;;;;11.10;5.60;;;-3.00;99.90;;;;;;4987943;28;20478;-67
2021/12/28 01:04:39;;;;;;;10.17;5.07;;;-3.00;99.90;;;;;;4984428;28;20046;-70
2021/12/28 01:07:06;;;;;;;7.40;6.03;;;-3.00;99.90;;;;;;4989587;28;20155;-68
2021/12/28 01:09:33;;;;;;;9.60;5.30;;;-3.00;99.90;;;;;;4991771;28;20908;-70
2021/12/28 01:12:03;;;;;;;11.10;6.17;;;-3.10;99.90;;;;;;4991367;28;20054;-67
2021/12/28 01:14:31;;;;;;;10.65;5.50;;;-3.00;99.90;;;;;;4985596;28;20132;-69
2021/12/28 01:17:01;;;;;;;12.93;6.03;;;-3.10;99.90;;;;;;4989613;28;20050;-66
2021/12/28 01:19:28;;;;;;;8.45;5.38;;;-3.10;99.90;;;;;;4988798;28;20100;-68
2021/12/28 01:21:55;;;;;;;10.27;5.68;;;-3.10;99.90;;;;;;4989829;28;20148;-67
2021/12/28 01:24:22;;;;;;;14.20;5.50;;;-3.10;99.90;;;;;;4986344;28;20058;-70
2021/12/28 01:26:49;;;;;;;11.17;5.07;;;-3.10;99.90;;;;;;4993871;28;20045;-67
2021/12/28 01:29:16;;;;;;;11.00;5.63;;;-3.10;99.90;;;;;;4991474;28;20071;-70
2021/12/28 01:31:43;;;;;;;11.88;5.90;;;-3.20;99.90;;;;;;4992491;28;20833;-66
2021/12/28 01:34:11;;;;;;;7.43;4.30;;;-3.20;99.90;;;;;;4992352;28;20672;-65
2021/12/28 01:36:38;;;;;;;9.32;5.05;;;-3.20;99.90;;;;;;4987909;28;20061;-66
2021/12/28 01:39:07;;;;;;;9.82;4.82;;;-3.20;99.90;;;;;;4988723;28;20225;-67
2021/12/28 01:41:35;;;;;;;9.87;4.63;;;-3.30;99.90;;;;;;4991508;28;20539;-64
2021/12/28 01:44:08;;;;;;;7.40;4.93;;;-3.30;99.90;;;;;;4988041;28;20140;-68
2021/12/28 01:46:36;;;;;;;6.90;5.07;;;-3.30;99.90;;;;;;4983333;28;20096;-66
2021/12/28 01:49:05;;;;;;;10.23;5.25;;;-3.30;99.90;;;;;;4989778;28;20975;-65
2021/12/28 01:51:33;;;;;;;17.77;6.50;;;-3.30;99.90;;;;;;4989657;28;20660;-66
2021/12/28 01:54:01;;;;;;;7.32;4.43;;;-3.30;99.90;;;;;;4989913;28;20085;-68
2021/12/28 01:56:30;;;;;;;11.67;6.43;;;-3.40;99.90;;;;;;4989445;28;20199;-65
2021/12/28 01:58:58;;;;;;;11.67;6.43;;;-3.40;99.90;;;;;;4991322;28;20240;-65
2021/12/28 02:01:26;;;;;;;9.93;5.90;;;-3.40;99.90;;;;;;4992052;28;20695;-65
2021/12/28 02:03:54;;;;;;;11.83;5.83;;;-3.40;99.90;;;;;;4989786;28;20960;-68
2021/12/28 02:06:24;;;;;;;12.33;5.57;;;-3.40;99.90;;;;;;4989080;28;20049;-69
2021/12/28 02:08:53;;;;;;;12.83;8.10;;;-3.40;99.90;;;;;;4989763;28;20058;-69
2021/12/28 02:11:20;;;;;;;13.57;5.77;;;-3.50;99.90;;;;;;4990493;28;20064;-69
2021/12/28 02:13:48;;;;;;;10.00;7.17;;;-3.50;99.90;;;;;;4990551;28;20378;-67
2021/12/28 02:16:16;;;;;;;9.57;5.07;;;-3.50;99.90;;;;;;4986614;28;20157;-66
2021/12/28 02:18:43;;;;;;;13.87;6.90;;;-3.50;99.90;;;;;;4983179;28;20932;-67
2021/12/28 02:21:10;;;;;;;10.47;5.77;;;-3.50;99.90;;;;;;4987806;28;20092;-67
2021/12/28 02:23:37;;;;;;;15.13;5.60;;;-3.40;99.90;;;;;;4987069;28;20057;-69
2021/12/28 02:26:05;;;;;;;11.77;6.10;;;-3.40;99.90;;;;;;4986913;28;20076;-66
2021/12/28 02:28:32;;;;;;;9.23;6.00;;;-3.40;99.90;;;;;;4987794;28;20054;-68
2021/12/28 02:31:02;;;;;;;13.63;7.10;;;-3.30;99.90;;;;;;4986016;28;20380;-67
2021/12/28 02:33:30;;;;;;;12.63;6.88;;;-3.30;99.90;;;;;;4992583;28;20053;-65
2021/12/28 02:35:59;;;;;;;13.93;6.50;;;-3.30;99.90;;;;;;4988980;28;21575;-65
2021/12/28 02:38:27;;;;;;;11.05;6.82;;;-3.30;99.90;;;;;;4988443;28;20729;-65
2021/12/28 02:40:55;;;;;;;10.47;6.67;;;-3.40;99.90;;;;;;4988044;28;20049;-67
2021/12/28 02:43:22;;;;;;;8.75;5.28;;;-3.40;99.90;;;;;;4991536;28;20057;-64
2021/12/28 02:45:55;;;;;;;10.70;7.50;;;-3.40;99.90;;;;;;4989003;28;20050;-65
2021/12/28 02:48:22;;;;;;;9.63;6.33;;;-3.40;99.90;;;;;;4989969;28;21004;-65
2021/12/28 02:50:54;;;;;;;12.38;6.45;;;-3.40;99.90;;;;;;4989685;28;20085;-68
2021/12/28 02:53:22;;;;;;;12.63;6.80;;;-3.40;99.90;;;;;;4989563;28;20599;-69
2021/12/28 02:55:49;;;;;;;16.90;5.87;;;-3.50;99.90;;;;;;4988751;28;20625;-69
2021/12/28 02:58:39;;;;;;;10.10;7.75;;;-3.50;99.90;;;;;;4982905;28;20060;-67
2021/12/28 03:01:15;;;;;;;14.60;7.70;;;-3.50;99.90;;;;;;4983221;28;20053;-65
2021/12/28 03:03:43;;;;;;;9.83;5.67;;;-3.50;99.90;;;;;;4990760;28;20057;-68
2021/12/28 03:06:13;;;;;;;10.13;6.83;;;-3.50;99.90;;;;;;4986787;28;20424;-66
2021/12/28 03:08:43;;;;;;;15.23;13.82;;;-3.50;99.90;;;;;;4987867;28;20060;-67
2021/12/28 03:11:11;;;;;;;7.13;4.93;;;-3.50;99.90;;;;;;4990769;28;20188;-66
2021/12/28 03:13:42;;;;;;;7.43;4.43;;;-3.50;99.90;;;;;;4990675;28;20606;-67
2021/12/28 03:16:10;;;;;;;13.23;6.50;;;-3.50;99.90;;;;;;4989773;28;20164;-69
2021/12/28 03:18:38;;;;;;;8.80;5.10;;;-3.50;99.90;;;;;;4988125;28;20042;-69
2021/12/28 03:21:06;;;;;;;9.40;6.07;;;-3.50;99.90;;;;;;4991367;28;20054;-67
2021/12/28 03:23:34;;;;;;;10.57;5.63;;;-3.50;99.90;;;;;;4986458;28;20176;-66
2021/12/28 03:26:01;;;;;;;11.17;5.77;;;-3.50;99.90;;;;;;4985606;28;20078;-67
2021/12/28 03:28:30;;;;;;;7.83;4.40;;;-3.40;99.90;;;;;;4985618;28;20060;-68
2021/12/28 03:31:04;;;;;;;9.52;5.65;;;-3.40;99.90;;;;;;4983620;28;20116;-64
2021/12/28 03:33:34;;;;;;;13.40;6.03;;;-3.40;99.90;;;;;;4988652;28;20127;-67
2021/12/28 03:36:02;;;;;;;;;;;-3.40;99.90;;;;;;4987380;28;20303;-67
2021/12/28 03:38:29;;;;;;;14.40;6.83;;;-3.40;99.90;;;;;;4985171;28;20467;-67
2021/12/28 03:40:56;;;;;;;11.77;6.40;;;-3.40;99.90;;;;;;4990177;28;20901;-69
2021/12/28 03:43:24;;;;;;;10.37;5.20;;;-3.40;99.90;;;;;;4992570;28;20078;-67
2021/12/28 03:45:51;;;;;;;12.17;7.03;;;-3.40;99.90;;;;;;4987344;28;22096;-64
2021/12/28 03:48:19;;;;;;;10.33;4.80;;;-3.40;99.90;;;;;;4989805;28;20062;-69
2021/12/28 03:50:46;;;;;;;7.03;4.73;;;-3.40;99.90;;;;;;4987778;28;20142;-66
2021/12/28 03:53:13;;;;;;;13.70;5.70;;;-3.30;99.90;;;;;;4989483;28;20077;-68
2021/12/28 03:55:41;;;;;;;11.90;5.50;;;-3.30;99.90;;;;;;4989720;28;20086;-69
2021/12/28 03:58:07;;;;;;;9.25;5.05;;;-3.30;99.90;;;;;;4990755;28;21749;-63
2021/12/28 04:00:41;;;;;;;13.83;5.67;;;-3.30;99.90;;;;;;4986102;28;20050;-64
2021/12/28 04:03:09;;;;;;;10.23;5.40;;;-3.30;99.90;;;;;;4996258;28;20062;-66
2021/12/28 04:05:37;;;;;;;9.13;5.43;;;-3.30;99.90;;;;;;4993812;28;20118;-66
2021/12/28 04:08:04;;;;;;;16.00;7.50;;;-3.30;99.90;;;;;;4995599;28;20049;-69
2021/12/28 04:10:38;;;;;;;12.77;6.13;;;-3.20;99.90;;;;;;4991237;28;20232;-68
2021/12/28 04:13:05;;;;;;;12.33;6.17;;;-3.20;99.90;;;;;;4992692;28;21051;-66
2021/12/28 04:15:32;;;;;;;10.63;6.13;;;-3.20;99.90;;;;;;4993968;28;20140;-73
2021/12/28 04:17:59;;;;;;;11.25;5.88;;;-3.10;99.90;;;;;;4992191;28;20080;-67
2021/12/28 04:20:26;;;;;;;11.50;5.25;;;-3.20;99.90;;;;;;4992468;28;20128;-66
2021/12/28 04:22:53;;;;;;;8.07;4.67;;;-3.20;99.90;;;;;;4993479;28;20127;-66
2021/12/28 04:25:20;;;;;;;11.13;6.13;;;-3.10;99.90;;;;;;4994304;28;20129;-66
2021/12/28 04:27:46;;;;;;;11.37;6.50;;;-3.10;99.90;;;;;;4992647;28;20085;-69
2021/12/28 04:30:15;;;;;;;11.77;7.33;;;-3.10;99.90;;;;;;4991304;28;20052;-65
2021/12/28 04:32:43;;;;;;;12.30;6.97;;;-3.10;99.90;;;;;;4993026;28;20062;-64
2021/12/28 04:35:12;;;;;;;8.57;4.83;;;-3.10;99.90;;;;;;4992927;28;20665;-65
2021/12/28 04:37:40;;;;;;;10.77;5.65;;;-3.10;99.90;;;;;;4991253;28;20131;-66
2021/12/28 04:40:09;;;;;;;11.48;5.47;;;-3.00;99.90;;;;;;4995438;28;21715;-67
2021/12/28 04:42:36;;;;;;;12.43;4.80;;;-3.00;99.90;;;;;;4987403;28;20092;-66
2021/12/28 04:45:07;;;;;;;12.57;6.97;;;-3.00;99.90;;;;;;4995265;28;20133;-71
2021/12/28 04:47:34;;;;;;;;;;;-3.00;99.90;;;;;;4992551;28;20057;-66
2021/12/28 04:50:01;;;;;;;9.52;5.55;;;-2.90;99.90;;;;;;4990814;28;20025;-67
2021/12/28 04:52:31;;;;;;;10.97;5.60;;;-3.00;99.90;;;;;;4992037;28;20151;-67
2021/12/28 04:54:58;;;;;;;13.37;5.63;;;-3.00;99.90;;;;;;4992684;28;20140;-67
2021/12/28 04:57:25;;;;;;;11.25;4.65;;;-3.00;99.90;;;;;;4990400;28;20552;-64
2021/12/28 04:59:52;;;;;;;15.32;6.90;;;-3.00;99.90;;;;;;4992525;28;20092;-68
2021/12/28 05:02:19;;;;;;;11.40;6.37;;;-3.00;99.90;;;;;;4989139;28;20140;-67
2021/12/28 05:04:46;;;;;;;11.50;6.20;;;-3.00;99.90;;;;;;4988640;28;20112;-67
2021/12/28 05:07:13;;;;;;;14.13;6.87;;;-2.90;99.90;;;;;;4990677;28;20523;-69
2021/12/28 05:09:40;;;;;;;13.70;6.60;;;-2.90;99.90;;;;;;4992294;28;20053;-66
2021/12/28 05:12:07;;;;;;;13.68;5.47;;;-2.90;99.90;;;;;;4992877;28;20078;-64
2021/12/28 05:14:39;;;;;;;14.33;6.73;;;-2.90;99.90;;;;;;4991226;28;20054;-69
2021/12/28 05:17:06;;;;;;;12.50;6.60;;;-2.90;99.90;;;;;;4990661;28;20050;-69
2021/12/28 05:19:34;;;;;;;12.05;6.53;;;-2.90;99.90;;;;;;5007871;28;20163;-65
2021/12/28 05:22:01;;;;;;;13.57;7.07;;;-2.80;99.90;;;;;;4990103;28;20122;-66
2021/12/28 05:24:28;;;;;;;14.82;7.53;;;-2.80;99.90;;;;;;4989087;28;20148;-65
2021/12/28 05:26:55;;;;;;;8.98;6.57;;;-2.80;99.90;;;;;;4987879;28;20050;-67
2021/12/28 05:29:22;;;;;;;10.23;5.60;;;-2.70;99.90;;;;;;4993147;28;20074;-64
2021/12/28 05:31:48;;;;;;;13.98;6.30;;;-2.70;99.90;;;;;;4991342;28;20050;-68
2021/12/28 05:34:15;;;;;;;10.90;5.13;;;-2.70;99.90;;;;;;4991350;28;20123;-68
2021/12/28 05:36:42;;;;;;;14.02;6.80;;;-2.70;99.90;;;;;;4989711;28;20081;-68
2021/12/28 05:39:09;;;;;;;11.45;5.85;;;-2.70;99.90;;;;;;4991751;28;20128;-67
2021/12/28 05:41:36;;;;;;;13.98;7.97;;;-2.70;99.90;;;;;;4992355;28;20081;-68
2021/12/28 05:44:03;;;;;;;12.23;6.77;;;-2.70;99.90;;;;;;4993222;28;20119;-65
2021/12/28 05:46:30;;;;;;;11.57;6.68;;;-2.70;99.90;;;;;;4988618;28;20072;-67
2021/12/28 05:48:58;;;;;;;17.15;6.18;;;-2.70;99.90;;;;;;4991078;28;20050;-67
2021/12/28 05:51:25;;;;;;;12.25;6.47;;;-2.70;99.90;;;;;;4991717;28;20438;-67
2021/12/28 05:53:52;;;;;;;11.73;6.20;;;-2.60;99.90;;;;;;4991441;28;20140;-65
2021/12/28 05:56:19;;;;;;;12.82;6.93;;;-2.70;99.90;;;;;;4990280;28;20663;-65
2021/12/28 05:58:45;;;;;;;13.20;6.22;;;-2.70;99.90;;;;;;4991070;28;20156;-69
2021/12/28 06:01:12;;;;;;;14.95;7.00;;;-2.70;99.90;;;;;;4987758;28;21383;-66
2021/12/28 06:03:40;;;;;;;10.60;5.95;;;-2.70;99.90;;;;;;4992089;28;20048;-66
2021/12/28 06:06:07;;;;;;;10.35;5.88;;;-2.70;99.90;;;;;;4971667;28;20049;-67
2021/12/28 06:08:34;;;;;;;10.70;5.47;;;-2.70;99.90;;;;;;4989041;28;20050;-66
2021/12/28 06:11:03;;;;;;;14.80;7.82;;;-2.70;99.90;;;;;;4989470;28;20053;-68
2021/12/28 06:13:30;;;;;;;9.52;5.85;;;-2.70;99.90;;;;;;4976967;28;21357;-64
2021/12/28 06:15:57;;;;;;;14.23;6.35;;;-2.70;99.90;;;;;;4988754;28;20054;-66
2021/12/28 06:18:24;;;;;;;12.35;6.22;;;-2.70;99.90;;;;;;4987451;28;20096;-66
2021/12/28 06:20:51;;;;;;;13.23;6.07;;;-2.70;99.90;;;;;;4989819;28;20053;-70
2021/12/28 06:23:18;;;;;;;15.40;6.28;;;-2.70;99.90;;;;;;4993049;28;20072;-65
2021/12/28 06:25:45;;;;;;;9.00;5.35;;;-2.70;99.90;;;;;;4988961;28;20064;-66
2021/12/28 06:28:12;;;;;;;9.90;5.85;;;-2.70;99.90;;;;;;4990469;28;20077;-65
2021/12/28 06:30:39;;;;;;;12.25;7.15;;;-2.70;99.90;;;;;;4986053;28;20411;-68
2021/12/28 06:33:06;;;;;;;12.98;5.80;;;-2.60;99.90;;;;;;4991804;28;20050;-67
2021/12/28 06:35:34;;;;;;;9.52;5.22;;;-2.60;99.90;;;;;;4989505;28;20458;-67
2021/12/28 06:38:01;;;;;;;15.55;5.97;;;-2.60;99.90;;;;;;4988153;28;20050;-67
2021/12/28 06:40:28;;;;;;;8.30;5.85;;;-2.60;99.90;;;;;;4988967;28;20104;-65
2021/12/28 06:42:55;;;;;;;11.38;5.10;;;-2.60;99.90;;;;;;4992770;28;20137;-66
2021/12/28 06:45:22;;;;;;;10.65;4.68;;;-2.60;99.90;;;;;;4989473;28;20548;-66
2021/12/28 06:47:49;;;;;;;8.27;4.45;;;-2.50;99.90;;;;;;4990606;28;20049;-67
2021/12/28 06:50:16;;;;;;;9.80;5.43;;;-2.50;99.90;;;;;;4989767;28;20053;-68
2021/12/28 06:52:43;;;;;;;11.60;4.43;;;-2.50;99.90;;;;;;4989135;28;20526;-69
2021/12/28 06:55:11;;;;;;;9.18;4.45;;;-2.50;99.90;;;;;;4989717;28;20046;-67
2021/12/28 06:57:38;;;;;;;8.80;4.30;;;-2.40;99.90;;;;;;4991455;28;20373;-67
2021/12/28 07:00:09;;;;;;;8.35;5.13;;;-2.40;99.90;;;;;;4988242;28;20093;-64
2021/12/28 07:02:36;;;;;;;12.40;5.28;;;-2.40;99.90;;;;;;4989304;28;20522;-69
2021/12/28 07:05:05;;;;;;;10.75;6.05;;;-2.40;99.90;;;;;;4986611;28;20144;-67
2021/12/28 07:07:33;;;;;;;18.23;7.55;;;-2.30;99.90;;;;;;4990773;28;20152;-67
2021/12/28 07:10:00;;;;;;;11.55;4.55;;;-2.30;99.90;;;;;;4989412;28;20049;-66
2021/12/28 07:12:27;;;;;;;11.93;7.35;;;-2.30;99.90;;;;;;4987255;28;20153;-64
2021/12/28 07:14:54;;;;;;;12.23;4.87;;;-2.20;99.90;;;;;;4990222;28;20566;-71
2021/12/28 07:17:21;;;;;;;10.35;5.43;;;-2.10;99.90;;;;;;4992085;28;20054;-66
2021/12/28 07:19:47;;;;;;;14.98;6.82;;;-2.10;99.90;;;;;;4989571;28;20056;-65
2021/12/28 07:22:14;;;;;;;11.05;6.30;;;-2.00;99.90;;;;;;4990297;28;20057;-65
2021/12/28 07:24:41;;;;;;;13.18;5.53;;;-1.90;99.90;;;;;;4987585;28;21006;-68
2021/12/28 07:27:08;;;;;;;12.98;5.97;;;-1.90;99.90;;;;;;4991419;28;20830;-65
2021/12/28 07:29:35;;;;;;;13.88;7.10;;;-1.80;99.90;;;;;;4986706;28;20050;-65
2021/12/28 07:32:08;;;;;;;8.00;5.00;;;-1.70;99.90;;;;;;4988476;28;20105;-67
2021/12/28 07:34:35;;;;;;;11.18;5.13;;;-1.70;99.90;;;;;;4986281;28;20159;-65
2021/12/28 07:37:02;;;;;;;13.35;7.70;;;-1.70;99.90;;;;;;4990602;28;20125;-65
2021/12/28 07:39:29;;;;;;;10.43;5.85;;;-1.60;99.90;;;;;;4988840;28;20535;-66
2021/12/28 07:41:56;;;;;;;13.48;5.53;;;-1.60;99.90;;;;;;4987198;28;20164;-66
2021/12/28 07:44:24;;;;;;;13.25;5.28;;;-1.60;99.90;;;;;;4987602;28;20108;-69
2021/12/28 07:46:51;;;;;;;14.90;6.03;;;-1.60;99.90;;;;;;4989423;28;20053;-67
2021/12/28 07:49:18;;;;;;;13.75;7.65;;;-1.50;99.90;;;;;;4991629;28;20076;-67
2021/12/28 07:51:46;;;;;;;17.88;7.80;;;-1.50;99.90;;;;;;4987817;28;20743;-68
2021/12/28 07:54:13;;;;;;;15.30;6.22;;;-1.40;99.90;;;;;;4988413;28;20084;-68
2021/12/28 07:56:40;;;;;;;18.83;6.63;;;-1.30;99.90;;;;;;4969835;28;20157;-65
2021/12/28 07:59:08;;;;;;;13.35;5.38;;;-1.30;99.90;;;;;;4971781;28;20068;-65
2021/12/28 08:01:35;;;;;;;11.73;5.43;;;-1.30;99.90;;;;;;4988712;28;20064;-68
2021/12/28 08:04:03;;;;;;;11.23;6.15;;;-1.20;99.90;;;;;;4989148;28;20069;-67
2021/12/28 08:06:30;;;;;;;11.85;6.25;;;-1.20;99.90;;;;;;4989156;28;20235;-67
2021/12/28 08:08:57;;;;;;;12.10;5.75;;;-1.10;99.90;;;;;;4987912;28;20113;-66
2021/12/28 08:11:24;;;;;;;9.38;5.68;;;-1.10;99.90;;;;;;4988024;28;20699;-69
2021/12/28 08:13:52;;;;;;;13.23;6.30;;;-1.10;99.90;;;;;;4991510;28;20054;-68
2021/12/28 08:16:19;;;;;;;9.88;6.47;;;-1.10;99.90;;;;;;4987005;28;20949;-65
2021/12/28 08:18:46;;;;;;;9.02;5.40;;;-1.10;99.90;;;;;;4987180;28;20418;-67
2021/12/28 08:21:33;;;;;;;13.98;5.88;;;-1.00;99.90;;;;;;4990669;28;20053;-63
2021/12/28 08:24:00;;;;;;;18.30;6.95;;;-0.90;99.90;;;;;;4990767;28;20739;-68
2021/12/28 08:26:27;;;;;;;16.65;7.63;;;-0.80;99.90;;;;;;4986512;28;20131;-67
2021/12/28 08:28:54;;;;;;;14.75;6.30;;;-0.80;99.90;;;;;;4988137;28;20061;-65
2021/12/28 08:31:25;;;;;;;12.65;6.32;;;-0.80;99.90;;;;;;4990541;28;20081;-69
2021/12/28 08:33:52;;;;;;;15.18;6.22;;;-0.80;99.90;;;;;;4990938;28;20060;-65
2021/12/28 08:36:20;;;;;;;11.45;5.72;;;-0.70;99.90;;;;;;4986472;28;20431;-66
2021/12/28 08:38:47;;;;;;;19.33;6.00;;;-0.70;99.90;;;;;;4990188;28;20456;-68
2021/12/28 08:41:14;;;;;;;14.68;6.97;;;-0.70;99.90;;;;;;4991967;28;20058;-68
2021/12/28 08:43:46;;;;;;;14.27;6.00;;;-0.70;99.90;;;;;;4994199;28;20065;-68
2021/12/28 08:46:14;;;;;;;11.38;6.03;;;-0.70;99.90;;;;;;4990820;28;20089;-68
2021/12/28 08:48:41;;;;;;;11.13;4.78;;;-0.80;99.90;;;;;;4990722;28;20141;-65
2021/12/28 08:51:09;;;;;;;10.13;5.38;;;-0.70;99.90;;;;;;4972384;28;20791;-68
2021/12/28 08:53:36;;;;;;;8.55;5.22;;;-0.60;99.90;;;;;;4994012;28;20199;-71
2021/12/28 08:56:03;;;;;;;13.52;5.85;;;-0.60;99.90;;;;;;4992214;28;20514;-68
2021/12/28 08:58:30;;;;;;;11.68;5.82;;;-0.60;99.90;;;;;;4988806;28;20590;-69
2021/12/28 09:00:57;;;;;;;15.30;5.80;;;-0.60;99.90;;;;;;4991299;28;20499;-70
2021/12/28 09:03:25;;;;;;;11.52;5.15;;;-0.60;99.90;;;;;;4991344;28;20057;-66
2021/12/28 09:05:52;;;;;;;12.60;5.65;;;-0.60;99.90;;;;;;4993405;28;20602;-64
2021/12/28 09:08:19;;;;;;;9.23;5.03;;;-0.60;99.90;;;;;;4992971;28;20116;-68
2021/12/28 09:10:48;;;;;;;13.57;5.40;;;-0.50;99.90;;;;;;4989262;28;20052;-68
2021/12/28 09:13:17;;;;;;;10.60;5.68;;;-0.50;99.90;;;;;;4993516;28;20053;-68
2021/12/28 09:15:46;;;;;;;8.20;4.80;;;-0.40;99.90;;;;;;4989907;28;20446;-69
2021/12/28 09:18:13;;;;;;;9.32;5.03;;;-0.40;99.90;;;;;;4992542;28;20128;-68
2021/12/28 09:20:40;;;;;;;11.93;7.70;;;-0.40;99.90;;;;;;4989228;28;20063;-69
2021/12/28 09:23:09;;;;;;;13.30;6.32;;;-0.40;99.90;;;;;;4990128;28;20079;-65
2021/12/28 09:25:37;;;;;;;10.75;4.30;;;-0.30;99.90;;;;;;4992480;28;20623;-67
2021/12/28 09:28:06;;;;;;;8.63;4.65;;;-0.30;99.90;;;;;;4993755;28;20145;-68
2021/12/28 09:30:34;;;;;;;10.73;4.77;;;-0.30;99.90;;;;;;4989526;28;21196;-66
2021/12/28 09:33:02;;;;;;;10.13;5.88;;;-0.30;99.90;;;;;;4991750;28;20292;-66
2021/12/28 09:35:29;;;;;;;9.40;4.88;;;-0.30;99.90;;;;;;4990648;28;20149;-66
2021/12/28 09:37:56;;;;;;;9.77;4.72;;;-0.30;99.90;;;;;;4973255;28;20507;-68
2021/12/28 09:40:29;;;;;;;12.70;5.13;;;-0.20;99.90;;;;;;4985797;28;20058;-68
2021/12/28 09:42:56;;;;;;;13.38;6.22;;;-0.10;99.90;;;;;;4990600;28;20049;-67
2021/12/28 09:45:24;;;;;;;10.38;4.65;;;-0.10;99.90;;;;;;4989625;28;20494;-68
2021/12/28 09:47:51;;;;;;;15.55;6.35;;;0.00;99.90;;;;;;4992949;28;20053;-69
2021/12/28 09:50:18;;;;;;;11.20;5.15;;;0.00;99.90;;;;;;4988209;28;20074;-66
2021/12/28 09:52:48;;;;;;;12.80;5.25;;;0.10;99.90;;;;;;4988924;28;21401;-69
2021/12/28 09:55:23;;;;;;;9.63;5.03;;;0.20;99.90;;;;;;4990447;28;20182;-69
2021/12/28 09:57:52;;;;;;;9.30;4.40;;;0.20;99.90;;;;;;4992493;28;20112;-68
2021/12/28 10:00:21;;;;;;;10.38;5.25;;;0.30;99.90;;;;;;4992079;28;20057;-66
2021/12/28 10:03:08;;;;;;;12.90;6.32;;;0.30;99.90;;;;;;4989539;28;20132;-68
2021/12/28 10:05:36;;;;;;;11.40;5.95;;;0.40;99.90;;;;;;4991942;28;20494;-68
2021/12/28 10:08:04;;;;;;;8.75;4.40;;;0.40;99.90;;;;;;4990181;28;20144;-67
2021/12/28 10:10:41;;;;;;;10.10;4.32;;;0.50;99.90;;;;;;4987151;28;20077;-69
2021/12/28 10:13:17;;;;;;;12.43;5.35;;;0.50;99.90;;;;;;4992775;28;20097;-68
2021/12/28 10:15:45;;;;;;;10.82;4.75;;;0.50;99.90;;;;;;4988215;28;20057;-69
2021/12/28 10:18:13;;;;;;;11.73;5.07;;;0.60;99.90;;;;;;4990883;28;20064;-71
2021/12/28 10:20:55;;;;;;;14.77;6.32;;;0.60;99.90;;;;;;4987611;28;21374;-67
2021/12/28 10:23:26;;;;;;;12.60;5.18;;;0.60;99.90;;;;;;4991138;28;20046;-69
2021/12/28 10:25:54;;;;;;;;;;;0.70;99.90;;;;;;4991101;28;20100;-70
2021/12/28 10:28:29;;;;;;;11.52;4.85;;;0.70;99.90;;;;;;4987875;28;19929;-66
2021/12/28 10:31:00;;;;;;;11.20;5.95;;;0.70;99.90;;;;;;4991652;28;20140;-68
2021/12/28 10:33:29;;;;;;;12.80;6.93;;;0.70;99.90;;;;;;4991943;28;20053;-64
2021/12/28 10:36:04;;;;;;;11.07;5.47;;;0.70;99.90;;;;;;4989893;28;20050;-68
2021/12/28 10:38:34;;;;;;;14.77;5.90;;;0.70;99.90;;;;;;4989746;28;20050;-69
2021/12/28 10:41:08;;;;;;;12.75;8.77;;;0.80;99.90;;;;;;4990309;28;20061;-69
2021/12/28 10:43:37;;;;;;;11.27;5.45;;;0.80;99.90;;;;;;4990819;28;20054;-69
2021/12/28 10:46:08;;;;;;;6.65;4.35;;;0.80;99.90;;;;;;4987280;28;20058;-66
2021/12/28 10:48:49;;;;;;;8.35;5.20;;;0.80;99.90;;;;;;4988324;28;20057;-69
2021/12/28 10:51:21;;;;;;;8.93;5.38;;;0.80;99.90;;;;;;4989230;28;20399;-67
2021/12/28 10:54:15;;;;;;;9.32;5.65;;;0.80;99.90;;;;;;4989599;28;20459;-66
2021/12/28 10:56:54;;;;;;;10.75;5.32;;;0.90;99.90;;;;;;4988949;28;20054;-65
2021/12/28 10:59:27;;;;;;;15.63;5.78;;;0.80;99.90;;;;;;4988861;28;20179;-70
2021/12/28 11:01:54;;;;;;;8.32;4.65;;;0.80;99.90;;;;;;4987594;28;20084;-70
2021/12/28 11:04:37;;;;;;;11.65;5.55;;;0.90;99.90;;;;;;4990115;28;20077;-66
2021/12/28 11:07:08;;;;;;;10.25;5.18;;;0.90;99.90;;;;;;4989432;28;20209;-69
2021/12/28 11:09:44;;;;;;;9.40;5.85;;;0.90;99.90;;;;;;4986876;28;20680;-65
2021/12/28 11:12:11;;;;;;;13.70;6.05;;;0.90;99.90;;;;;;4990615;28;20049;-68
2021/12/28 11:14:38;;;;;;;12.70;7.43;;;0.90;99.90;;;;;;4970151;28;20056;-69
2021/12/28 11:17:06;;;;;;;10.68;5.47;;;0.90;99.90;;;;;;4989974;28;20156;-67
2021/12/28 11:19:36;;;;;;;11.50;4.53;;;0.90;99.90;;;;;;4988074;28;20054;-68
2021/12/28 11:22:09;;;;;;;9.33;4.90;;;0.90;99.90;;;;;;4990083;28;20128;-66
2021/12/28 11:24:40;;;;;;;9.15;4.50;;;0.90;99.90;;;;;;4987936;28;20073;-69
2021/12/28 11:27:10;;;;;;;11.27;5.65;;;0.90;99.90;;;;;;4986925;28;20128;-67
2021/12/28 11:29:54;;;;;;;10.15;4.78;;;1.00;99.90;;;;;;4987298;28;20236;-65
2021/12/28 11:32:21;;;;;;;8.00;4.70;;;1.00;99.90;;;;;;4989592;28;20062;-65
2021/12/28 11:34:49;;;;;;;10.13;5.30;;;1.00;99.90;;;;;;4988236;28;20060;-69
2021/12/28 11:37:20;;;;;;;12.38;5.25;;;1.00;99.90;;;;;;4991478;28;20054;-68
2021/12/28 11:39:50;;;;;;;14.18;6.47;;;1.00;99.90;;;;;;4988998;28;20129;-66
2021/12/28 11:42:19;;;;;;;12.52;4.97;;;1.00;99.90;;;;;;4990866;28;20053;-67
2021/12/28 11:44:49;;;;;;;12.35;6.40;;;1.00;99.90;;;;;;4988017;28;20130;-66
2021/12/28 11:47:17;;;;;;;10.32;5.70;;;1.00;99.90;;;;;;4989087;28;20062;-69
2021/12/28 11:49:46;;;;;;;10.20;5.97;;;1.00;99.90;;;;;;4985204;28;20068;-65
2021/12/28 11:52:18;;;;;;;11.75;5.65;;;1.00;99.90;;;;;;4990726;28;21427;-66
2021/12/28 11:54:47;;;;;;;12.25;5.75;;;1.00;99.90;;;;;;4986789;28;20069;-66
2021/12/28 11:57:17;;;;;;;9.52;6.45;;;1.00;99.90;;;;;;4991344;28;20082;-68
2021/12/28 12:00:04;;;;;;;16.20;6.18;;;1.00;99.90;;;;;;4989235;28;20191;-65
2021/12/28 12:02:45;;;;;;;13.45;7.18;;;0.90;99.90;;;;;;4986786;28;20138;-66
2021/12/28 12:05:25;;;;;;;10.20;5.25;;;0.90;99.90;;;;;;4991432;28;20096;-66
2021/12/28 12:08:11;;;;;;;13.60;6.30;;;0.90;99.90;;;;;;4990150;28;20143;-65
2021/12/28 12:10:50;;;;;;;14.40;6.75;;;0.90;99.90;;;;;;4987087;28;20061;-66
2021/12/28 12:13:25;;;;;;;11.88;6.35;;;0.90;99.90;;;;;;4992637;28;20167;-69
2021/12/28 12:16:02;;;;;;;17.38;6.82;;;0.90;99.90;;;;;;4992607;28;20498;-67
2021/12/28 12:18:32;;;;;;;11.50;6.30;;;0.90;99.90;;;;;;4991090;28;20041;-70
2021/12/28 12:21:04;;;;;;;11.18;6.97;;;0.90;99.90;;;;;;4993564;28;20064;-69
2021/12/28 12:23:45;;;;;;;11.30;6.05;;;0.90;99.90;;;;;;4992435;28;20054;-67
2021/12/28 12:26:21;;;;;;;11.95;7.55;;;0.90;99.90;;;;;;4991157;28;20045;-66
2021/12/28 12:28:51;;;;;;;9.07;6.68;;;0.80;99.90;;;;;;4993450;28;20060;-70
2021/12/28 12:31:26;;;;;;;11.95;7.65;;;0.80;99.90;;;;;;4992594;28;20049;-67
2021/12/28 12:33:55;;;;;;;14.93;7.70;;;0.80;99.90;;;;;;4990377;28;20153;-69
2021/12/28 12:36:34;;;;;;;9.70;6.07;;;0.80;99.90;;;;;;4990254;28;20078;-67
2021/12/28 12:39:03;;;;;;;12.85;8.43;;;0.80;99.90;;;;;;4991509;28;20045;-67
2021/12/28 12:41:46;;;;;;;16.65;7.80;;;0.70;99.90;;;;;;4992604;28;20140;-67
2021/12/28 12:44:19;;;;;;;8.48;6.13;;;0.70;99.90;;;;;;4994243;28;20123;-68
2021/12/28 12:46:48;;;;;;;14.95;7.63;;;0.70;99.90;;;;;;4990169;28;20519;-70
2021/12/28 12:49:21;;;;;;;17.45;7.40;;;0.70;99.90;;;;;;4992457;28;20109;-68
2021/12/28 12:51:55;;;;;;;12.82;7.47;;;0.70;99.90;;;;;;4990546;28;20128;-67
2021/12/28 12:54:28;;;;;;;12.05;7.80;;;0.70;99.90;;;;;;4990354;28;20136;-70